sensor_id;sensor_type;location;lat;lon;timestamp;pressure;altitude;pressure_sealevel;temperature;humidity
51147;BME280;37207;53.060;18.726;2023-07-29T00:00:06;99966.06;;;15.34;86.15
51147;BME280;37207;53.060;18.726;2023-07-29T00:02:53;99968.67;;;15.33;86.25
51147;BME280;37207;53.060;18.726;2023-07-29T00:05:19;99972.67;;;15.30;86.15
51147;BME280;37207;53.060;18.726;2023-07-29T00:07:46;99975.88;;;15.28;86.33
51147;BME280;37207;53.060;18.726;2023-07-29T00:10:12;99977.48;;;15.27;86.29
51147;BME280;37207;53.060;18.726;2023-07-29T00:12:39;99980.48;;;15.26;86.39
51147;BME280;37207;53.060;18.726;2023-07-29T00:15:06;99982.80;;;15.26;86.35
51147;BME280;37207;53.060;18.726;2023-07-29T00:17:33;99987.73;;;15.27;86.54
51147;BME280;37207;53.060;18.726;2023-07-29T00:19:59;99989.79;;;15.28;86.66
51147;BME280;37207;53.060;18.726;2023-07-29T00:22:26;99993.46;;;15.29;86.65
51147;BME280;37207;53.060;18.726;2023-07-29T00:24:53;99994.48;;;15.30;86.52
51147;BME280;37207;53.060;18.726;2023-07-29T00:27:23;99990.89;;;15.30;86.45
51147;BME280;37207;53.060;18.726;2023-07-29T00:29:50;99991.23;;;15.28;86.39
51147;BME280;37207;53.060;18.726;2023-07-29T00:32:17;99991.09;;;15.26;86.66
51147;BME280;37207;53.060;18.726;2023-07-29T00:34:44;99993.14;;;15.25;86.87
51147;BME280;37207;53.060;18.726;2023-07-29T00:37:11;99995.77;;;15.25;87.01
51147;BME280;37207;53.060;18.726;2023-07-29T00:39:38;99997.21;;;15.24;87.24
51147;BME280;37207;53.060;18.726;2023-07-29T00:42:06;99997.73;;;15.23;87.41
51147;BME280;37207;53.060;18.726;2023-07-29T00:44:33;99999.36;;;15.23;87.45
51147;BME280;37207;53.060;18.726;2023-07-29T00:47:03;99999.55;;;15.23;87.58
51147;BME280;37207;53.060;18.726;2023-07-29T00:49:31;99997.73;;;15.23;87.79
51147;BME280;37207;53.060;18.726;2023-07-29T00:51:58;99995.84;;;15.24;87.85
51147;BME280;37207;53.060;18.726;2023-07-29T00:54:25;99998.14;;;15.23;87.51
51147;BME280;37207;53.060;18.726;2023-07-29T00:56:52;99999.45;;;15.21;87.42
51147;BME280;37207;53.060;18.726;2023-07-29T00:59:18;100001.22;;;15.21;87.42
51147;BME280;37207;53.060;18.726;2023-07-29T01:01:45;100002.73;;;15.18;87.35
51147;BME280;37207;53.060;18.726;2023-07-29T01:04:12;100003.20;;;15.18;87.49
51147;BME280;37207;53.060;18.726;2023-07-29T01:06:58;100005.03;;;15.16;87.70
51147;BME280;37207;53.060;18.726;2023-07-29T01:09:36;99998.27;;;15.16;87.81
51147;BME280;37207;53.060;18.726;2023-07-29T01:12:15;99998.27;;;15.16;88.02
51147;BME280;37207;53.060;18.726;2023-07-29T01:15:09;99996.47;;;15.14;87.95
51147;BME280;37207;53.060;18.726;2023-07-29T01:17:43;99991.29;;;15.13;87.91
51147;BME280;37207;53.060;18.726;2023-07-29T01:20:16;99990.23;;;15.12;87.88
51147;BME280;37207;53.060;18.726;2023-07-29T01:22:43;99990.48;;;15.09;87.77
51147;BME280;37207;53.060;18.726;2023-07-29T01:25:11;99987.61;;;15.06;87.64
51147;BME280;37207;53.060;18.726;2023-07-29T01:27:41;99990.24;;;15.03;87.66
51147;BME280;37207;53.060;18.726;2023-07-29T01:30:08;99990.41;;;15.02;87.78
51147;BME280;37207;53.060;18.726;2023-07-29T01:35:27;99996.45;;;15.00;87.69
51147;BME280;37207;53.060;18.726;2023-07-29T01:37:59;99997.73;;;14.96;87.58
51147;BME280;37207;53.060;18.726;2023-07-29T01:40:28;99998.00;;;14.91;87.59
51147;BME280;37207;53.060;18.726;2023-07-29T01:42:55;100000.04;;;14.88;87.54
51147;BME280;37207;53.060;18.726;2023-07-29T01:45:25;100000.62;;;14.87;87.53
51147;BME280;37207;53.060;18.726;2023-07-29T01:47:52;100003.78;;;14.85;87.57
51147;BME280;37207;53.060;18.726;2023-07-29T01:50:19;100001.08;;;14.84;87.64
51147;BME280;37207;53.060;18.726;2023-07-29T01:52:45;99998.10;;;14.79;87.54
51147;BME280;37207;53.060;18.726;2023-07-29T01:55:12;99997.61;;;14.72;87.43
51147;BME280;37207;53.060;18.726;2023-07-29T01:57:39;99996.39;;;14.66;87.52
51147;BME280;37207;53.060;18.726;2023-07-29T02:00:06;99996.60;;;14.62;87.55
51147;BME280;37207;53.060;18.726;2023-07-29T02:02:40;99996.80;;;14.57;87.64
51147;BME280;37207;53.060;18.726;2023-07-29T02:05:07;99996.24;;;14.52;87.32
51147;BME280;37207;53.060;18.726;2023-07-29T02:07:33;100000.07;;;14.45;87.21
51147;BME280;37207;53.060;18.726;2023-07-29T02:10:00;100002.27;;;14.38;87.20
51147;BME280;37207;53.060;18.726;2023-07-29T02:12:27;100002.02;;;14.30;87.13
51147;BME280;37207;53.060;18.726;2023-07-29T02:14:53;100004.02;;;14.23;87.10
51147;BME280;37207;53.060;18.726;2023-07-29T02:17:20;100005.28;;;14.17;87.14
51147;BME280;37207;53.060;18.726;2023-07-29T02:19:47;100004.77;;;14.10;87.04
51147;BME280;37207;53.060;18.726;2023-07-29T02:22:15;100004.65;;;13.99;86.88
51147;BME280;37207;53.060;18.726;2023-07-29T02:24:42;100009.91;;;13.93;87.03
51147;BME280;37207;53.060;18.726;2023-07-29T02:27:08;100008.14;;;13.88;87.28
51147;BME280;37207;53.060;18.726;2023-07-29T02:29:35;100008.90;;;13.85;87.48
51147;BME280;37207;53.060;18.726;2023-07-29T02:32:02;100005.41;;;13.82;87.56
51147;BME280;37207;53.060;18.726;2023-07-29T02:34:29;100013.25;;;13.81;87.70
51147;BME280;37207;53.060;18.726;2023-07-29T02:36:56;100014.20;;;13.81;87.84
51147;BME280;37207;53.060;18.726;2023-07-29T02:39:23;100015.65;;;13.82;87.98
51147;BME280;37207;53.060;18.726;2023-07-29T02:41:50;100015.14;;;13.84;88.01
51147;BME280;37207;53.060;18.726;2023-07-29T02:44:16;100018.31;;;13.86;88.04
51147;BME280;37207;53.060;18.726;2023-07-29T02:46:43;100017.29;;;13.84;87.76
51147;BME280;37207;53.060;18.726;2023-07-29T02:49:10;100017.75;;;13.80;87.53
51147;BME280;37207;53.060;18.726;2023-07-29T02:51:36;100024.10;;;13.76;87.65
51147;BME280;37207;53.060;18.726;2023-07-29T02:54:03;100023.00;;;13.74;87.58
51147;BME280;37207;53.060;18.726;2023-07-29T02:56:29;100026.19;;;13.69;87.30
51147;BME280;37207;53.060;18.726;2023-07-29T02:58:57;100033.95;;;13.65;87.44
51147;BME280;37207;53.060;18.726;2023-07-29T03:01:23;100039.63;;;13.64;87.63
51147;BME280;37207;53.060;18.726;2023-07-29T03:03:51;100039.39;;;13.63;87.69
51147;BME280;37207;53.060;18.726;2023-07-29T03:06:18;100040.83;;;13.58;87.32
51147;BME280;37207;53.060;18.726;2023-07-29T03:08:45;100037.74;;;13.53;87.33
51147;BME280;37207;53.060;18.726;2023-07-29T03:11:13;100038.55;;;13.49;87.29
51147;BME280;37207;53.060;18.726;2023-07-29T03:13:41;100038.05;;;13.44;87.29
51147;BME280;37207;53.060;18.726;2023-07-29T03:16:12;100032.61;;;13.41;87.51
51147;BME280;37207;53.060;18.726;2023-07-29T03:18:42;100036.91;;;13.40;87.68
51147;BME280;37207;53.060;18.726;2023-07-29T03:21:09;100039.62;;;13.37;87.73
51147;BME280;37207;53.060;18.726;2023-07-29T03:23:38;100041.65;;;13.35;87.89
51147;BME280;37207;53.060;18.726;2023-07-29T03:26:05;100041.09;;;13.35;87.99
51147;BME280;37207;53.060;18.726;2023-07-29T03:28:42;100046.23;;;13.35;88.18
51147;BME280;37207;53.060;18.726;2023-07-29T03:31:10;100049.89;;;13.38;88.26
51147;BME280;37207;53.060;18.726;2023-07-29T03:33:37;100052.45;;;13.41;88.19
51147;BME280;37207;53.060;18.726;2023-07-29T03:36:04;100054.79;;;13.45;88.14
51147;BME280;37207;53.060;18.726;2023-07-29T03:38:30;100057.48;;;13.47;88.10
51147;BME280;37207;53.060;18.726;2023-07-29T03:40:59;100054.20;;;13.49;87.95
51147;BME280;37207;53.060;18.726;2023-07-29T03:43:25;100057.17;;;13.49;87.90
51147;BME280;37207;53.060;18.726;2023-07-29T03:45:54;100059.69;;;13.50;87.89
51147;BME280;37207;53.060;18.726;2023-07-29T03:48:21;100056.29;;;13.47;87.73
51147;BME280;37207;53.060;18.726;2023-07-29T03:50:48;100057.64;;;13.42;87.75
51147;BME280;37207;53.060;18.726;2023-07-29T03:53:14;100056.40;;;13.38;87.73
51147;BME280;37207;53.060;18.726;2023-07-29T03:55:41;100060.65;;;13.37;87.80
51147;BME280;37207;53.060;18.726;2023-07-29T03:58:08;100060.95;;;13.37;87.97
51147;BME280;37207;53.060;18.726;2023-07-29T04:00:34;100059.73;;;13.37;88.12
51147;BME280;37207;53.060;18.726;2023-07-29T04:03:01;100064.50;;;13.40;88.24
51147;BME280;37207;53.060;18.726;2023-07-29T04:05:27;100064.02;;;13.45;88.34
51147;BME280;37207;53.060;18.726;2023-07-29T04:07:54;100066.39;;;13.50;88.47
51147;BME280;37207;53.060;18.726;2023-07-29T04:10:21;100070.57;;;13.55;88.53
51147;BME280;37207;53.060;18.726;2023-07-29T04:12:47;100076.19;;;13.59;88.55
51147;BME280;37207;53.060;18.726;2023-07-29T04:15:14;100079.19;;;13.63;88.54
51147;BME280;37207;53.060;18.726;2023-07-29T04:17:40;100078.17;;;13.65;88.66
51147;BME280;37207;53.060;18.726;2023-07-29T04:20:08;100075.46;;;13.68;89.06
51147;BME280;37207;53.060;18.726;2023-07-29T04:22:34;100069.58;;;13.70;89.19
51147;BME280;37207;53.060;18.726;2023-07-29T04:25:01;100066.77;;;13.72;89.28
51147;BME280;37207;53.060;18.726;2023-07-29T04:27:28;100070.81;;;13.77;89.34
51147;BME280;37207;53.060;18.726;2023-07-29T04:29:54;100071.63;;;13.83;89.44
51147;BME280;37207;53.060;18.726;2023-07-29T04:32:21;100072.55;;;13.88;89.54
51147;BME280;37207;53.060;18.726;2023-07-29T04:34:47;100078.06;;;13.94;89.58
51147;BME280;37207;53.060;18.726;2023-07-29T04:37:14;100079.36;;;14.01;89.66
51147;BME280;37207;53.060;18.726;2023-07-29T04:39:40;100079.58;;;14.06;89.97
51147;BME280;37207;53.060;18.726;2023-07-29T04:42:07;100078.26;;;14.13;89.95
51147;BME280;37207;53.060;18.726;2023-07-29T04:44:35;100078.65;;;14.18;89.90
51147;BME280;37207;53.060;18.726;2023-07-29T04:47:02;100078.42;;;14.23;89.77
51147;BME280;37207;53.060;18.726;2023-07-29T04:49:29;100078.02;;;14.28;89.82
51147;BME280;37207;53.060;18.726;2023-07-29T04:51:55;100082.71;;;14.33;89.71
51147;BME280;37207;53.060;18.726;2023-07-29T04:54:22;100086.86;;;14.37;89.71
51147;BME280;37207;53.060;18.726;2023-07-29T04:56:49;100092.73;;;14.38;89.72
51147;BME280;37207;53.060;18.726;2023-07-29T04:59:17;100096.11;;;14.42;89.82
51147;BME280;37207;53.060;18.726;2023-07-29T05:01:44;100095.98;;;14.44;89.91
51147;BME280;37207;53.060;18.726;2023-07-29T05:04:10;100100.80;;;14.47;90.12
51147;BME280;37207;53.060;18.726;2023-07-29T05:06:37;100097.00;;;14.52;90.40
51147;BME280;37207;53.060;18.726;2023-07-29T05:09:17;100092.33;;;14.57;90.49
51147;BME280;37207;53.060;18.726;2023-07-29T05:11:44;100098.32;;;14.63;90.45
51147;BME280;37207;53.060;18.726;2023-07-29T05:14:17;100100.88;;;14.68;90.56
51147;BME280;37207;53.060;18.726;2023-07-29T05:16:44;100098.12;;;14.74;90.64
51147;BME280;37207;53.060;18.726;2023-07-29T05:19:10;100097.32;;;14.80;90.75
51147;BME280;37207;53.060;18.726;2023-07-29T05:21:39;100095.34;;;14.86;90.81
51147;BME280;37207;53.060;18.726;2023-07-29T05:24:06;100102.96;;;14.92;90.68
51147;BME280;37207;53.060;18.726;2023-07-29T05:26:32;100101.06;;;14.98;90.77
51147;BME280;37207;53.060;18.726;2023-07-29T05:28:59;100098.15;;;15.04;90.58
51147;BME280;37207;53.060;18.726;2023-07-29T05:31:26;100105.92;;;15.14;90.89
51147;BME280;37207;53.060;18.726;2023-07-29T05:33:52;100109.70;;;15.19;90.76
51147;BME280;37207;53.060;18.726;2023-07-29T05:36:19;100111.65;;;15.23;90.66
51147;BME280;37207;53.060;18.726;2023-07-29T05:38:46;100114.10;;;15.28;91.11
51147;BME280;37207;53.060;18.726;2023-07-29T05:41:12;100110.16;;;15.31;90.97
51147;BME280;37207;53.060;18.726;2023-07-29T05:43:39;100107.73;;;15.35;90.85
51147;BME280;37207;53.060;18.726;2023-07-29T05:46:06;100111.71;;;15.39;90.96
51147;BME280;37207;53.060;18.726;2023-07-29T05:48:33;100113.23;;;15.44;90.95
51147;BME280;37207;53.060;18.726;2023-07-29T05:51:00;100115.75;;;15.48;90.98
51147;BME280;37207;53.060;18.726;2023-07-29T05:53:27;100115.54;;;15.52;91.00
51147;BME280;37207;53.060;18.726;2023-07-29T05:55:53;100115.66;;;15.56;90.87
51147;BME280;37207;53.060;18.726;2023-07-29T05:58:20;100113.00;;;15.60;90.99
51147;BME280;37207;53.060;18.726;2023-07-29T06:00:47;100114.29;;;15.64;90.74
51147;BME280;37207;53.060;18.726;2023-07-29T06:03:14;100114.06;;;15.70;90.90
51147;BME280;37207;53.060;18.726;2023-07-29T06:05:40;100117.52;;;15.76;90.84
51147;BME280;37207;53.060;18.726;2023-07-29T06:08:07;100119.34;;;15.83;90.80
51147;BME280;37207;53.060;18.726;2023-07-29T06:10:35;100119.13;;;15.89;91.12
51147;BME280;37207;53.060;18.726;2023-07-29T06:13:01;100118.27;;;15.96;91.22
51147;BME280;37207;53.060;18.726;2023-07-29T06:15:28;100113.34;;;16.04;91.28
51147;BME280;37207;53.060;18.726;2023-07-29T06:17:54;100109.27;;;16.13;91.35
51147;BME280;37207;53.060;18.726;2023-07-29T06:20:21;100111.39;;;16.21;91.29
51147;BME280;37207;53.060;18.726;2023-07-29T06:22:48;100113.73;;;16.30;91.12
51147;BME280;37207;53.060;18.726;2023-07-29T06:25:14;100114.98;;;16.39;90.86
51147;BME280;37207;53.060;18.726;2023-07-29T06:27:41;100113.31;;;16.49;90.93
51147;BME280;37207;53.060;18.726;2023-07-29T06:30:07;100115.86;;;16.58;90.89
51147;BME280;37207;53.060;18.726;2023-07-29T06:32:34;100116.83;;;16.69;91.02
51147;BME280;37207;53.060;18.726;2023-07-29T06:35:01;100120.63;;;16.80;90.85
51147;BME280;37207;53.060;18.726;2023-07-29T06:37:27;100121.17;;;16.90;90.52
51147;BME280;37207;53.060;18.726;2023-07-29T06:39:54;100121.08;;;17.00;90.47
51147;BME280;37207;53.060;18.726;2023-07-29T06:42:20;100116.33;;;17.11;90.14
51147;BME280;37207;53.060;18.726;2023-07-29T06:44:47;100122.34;;;17.21;89.82
51147;BME280;37207;53.060;18.726;2023-07-29T06:47:13;100117.79;;;17.31;89.65
51147;BME280;37207;53.060;18.726;2023-07-29T06:49:40;100117.41;;;17.42;89.64
51147;BME280;37207;53.060;18.726;2023-07-29T06:52:07;100114.90;;;17.55;89.65
51147;BME280;37207;53.060;18.726;2023-07-29T06:54:33;100116.19;;;17.68;89.47
51147;BME280;37207;53.060;18.726;2023-07-29T06:57:00;100118.27;;;17.82;89.23
51147;BME280;37207;53.060;18.726;2023-07-29T06:59:26;100123.02;;;17.96;89.13
51147;BME280;37207;53.060;18.726;2023-07-29T07:01:53;100124.55;;;18.11;88.84
51147;BME280;37207;53.060;18.726;2023-07-29T07:04:19;100124.20;;;18.25;88.08
51147;BME280;37207;53.060;18.726;2023-07-29T07:06:46;100121.61;;;18.40;87.98
51147;BME280;37207;53.060;18.726;2023-07-29T07:09:13;100118.67;;;18.58;87.90
51147;BME280;37207;53.060;18.726;2023-07-29T07:11:39;100121.52;;;18.75;87.28
51147;BME280;37207;53.060;18.726;2023-07-29T07:14:06;100115.98;;;18.92;86.61
51147;BME280;37207;53.060;18.726;2023-07-29T07:16:32;100114.90;;;19.10;86.01
51147;BME280;37207;53.060;18.726;2023-07-29T07:18:59;100115.58;;;19.29;84.78
51147;BME280;37207;53.060;18.726;2023-07-29T07:21:25;100117.05;;;19.48;83.87
51147;BME280;37207;53.060;18.726;2023-07-29T07:23:52;100120.35;;;19.70;83.48
51147;BME280;37207;53.060;18.726;2023-07-29T07:26:18;100118.14;;;19.95;83.52
51147;BME280;37207;53.060;18.726;2023-07-29T07:28:45;100117.77;;;20.19;83.04
51147;BME280;37207;53.060;18.726;2023-07-29T07:31:12;100117.88;;;20.44;82.07
51147;BME280;37207;53.060;18.726;2023-07-29T07:33:38;100118.64;;;20.63;80.99
51147;BME280;37207;53.060;18.726;2023-07-29T07:36:05;100116.02;;;20.81;80.21
51147;BME280;37207;53.060;18.726;2023-07-29T07:38:31;100121.70;;;21.00;79.65
51147;BME280;37207;53.060;18.726;2023-07-29T07:40:58;100118.16;;;21.19;79.03
51147;BME280;37207;53.060;18.726;2023-07-29T07:43:25;100110.63;;;21.42;78.63
51147;BME280;37207;53.060;18.726;2023-07-29T07:45:57;100114.39;;;21.65;77.49
51147;BME280;37207;53.060;18.726;2023-07-29T07:48:25;100114.00;;;21.83;76.03
51147;BME280;37207;53.060;18.726;2023-07-29T07:50:51;100108.20;;;22.04;76.02
51147;BME280;37207;53.060;18.726;2023-07-29T07:53:18;100107.66;;;22.20;74.58
51147;BME280;37207;53.060;18.726;2023-07-29T07:55:46;100103.69;;;22.37;74.05
51147;BME280;37207;53.060;18.726;2023-07-29T07:58:13;100101.64;;;22.57;73.59
51147;BME280;37207;53.060;18.726;2023-07-29T08:00:39;100097.95;;;22.76;73.13
51147;BME280;37207;53.060;18.726;2023-07-29T08:03:06;100099.13;;;22.94;72.54
51147;BME280;37207;53.060;18.726;2023-07-29T08:05:32;100098.45;;;23.10;71.57
51147;BME280;37207;53.060;18.726;2023-07-29T08:07:59;100100.72;;;23.34;70.31
51147;BME280;37207;53.060;18.726;2023-07-29T08:10:26;100097.31;;;23.56;70.01
51147;BME280;37207;53.060;18.726;2023-07-29T08:12:52;100097.13;;;23.72;70.09
51147;BME280;37207;53.060;18.726;2023-07-29T08:15:19;100098.28;;;23.85;69.48
51147;BME280;37207;53.060;18.726;2023-07-29T08:17:45;100100.20;;;23.98;68.35
51147;BME280;37207;53.060;18.726;2023-07-29T08:20:12;100099.65;;;24.10;67.30
51147;BME280;37207;53.060;18.726;2023-07-29T08:22:39;100096.59;;;24.33;67.94
51147;BME280;37207;53.060;18.726;2023-07-29T08:25:05;100093.23;;;24.33;66.42
51147;BME280;37207;53.060;18.726;2023-07-29T08:27:33;100089.00;;;24.28;66.34
51147;BME280;37207;53.060;18.726;2023-07-29T08:30:00;100080.57;;;24.38;64.73
51147;BME280;37207;53.060;18.726;2023-07-29T08:32:27;100085.34;;;24.55;65.53
51147;BME280;37207;53.060;18.726;2023-07-29T08:34:54;100084.95;;;24.69;64.41
51147;BME280;37207;53.060;18.726;2023-07-29T08:37:20;100087.97;;;24.94;64.98
51147;BME280;37207;53.060;18.726;2023-07-29T08:39:47;100085.91;;;25.15;63.58
51147;BME280;37207;53.060;18.726;2023-07-29T08:42:15;100084.02;;;25.30;62.04
51147;BME280;37207;53.060;18.726;2023-07-29T08:44:48;100080.29;;;25.44;62.22
51147;BME280;37207;53.060;18.726;2023-07-29T08:47:15;100080.13;;;25.64;62.44
51147;BME280;37207;53.060;18.726;2023-07-29T08:49:44;100078.41;;;25.85;61.66
51147;BME280;37207;53.060;18.726;2023-07-29T08:52:14;100076.07;;;26.01;60.36
51147;BME280;37207;53.060;18.726;2023-07-29T08:54:41;100070.36;;;26.15;60.31
51147;BME280;37207;53.060;18.726;2023-07-29T08:57:11;100066.37;;;26.25;58.35
51147;BME280;37207;53.060;18.726;2023-07-29T08:59:38;100068.32;;;26.23;56.67
51147;BME280;37207;53.060;18.726;2023-07-29T09:02:05;100063.94;;;26.06;56.97
51147;BME280;37207;53.060;18.726;2023-07-29T09:04:33;100061.96;;;25.93;56.97
51147;BME280;37207;53.060;18.726;2023-07-29T09:07:00;100057.85;;;25.72;57.11
51147;BME280;37207;53.060;18.726;2023-07-29T09:09:27;100054.45;;;25.84;58.28
51147;BME280;37207;53.060;18.726;2023-07-29T09:11:54;100057.11;;;26.14;57.54
51147;BME280;37207;53.060;18.726;2023-07-29T09:14:21;100056.29;;;26.43;57.44
51147;BME280;37207;53.060;18.726;2023-07-29T09:16:50;100055.84;;;26.71;56.50
51147;BME280;37207;53.060;18.726;2023-07-29T09:19:18;100054.96;;;27.02;56.07
51147;BME280;37207;53.060;18.726;2023-07-29T09:21:46;100055.70;;;27.52;55.70
51147;BME280;37207;53.060;18.726;2023-07-29T09:24:16;100054.91;;;28.11;53.97
51147;BME280;37207;53.060;18.726;2023-07-29T09:26:58;100049.71;;;28.57;52.20
51147;BME280;37207;53.060;18.726;2023-07-29T09:29:28;100051.36;;;28.88;51.78
51147;BME280;37207;53.060;18.726;2023-07-29T09:32:22;100050.36;;;29.17;50.56
51147;BME280;37207;53.060;18.726;2023-07-29T09:34:50;100045.20;;;29.27;50.50
51147;BME280;37207;53.060;18.726;2023-07-29T09:37:21;100042.55;;;29.38;49.75
51147;BME280;37207;53.060;18.726;2023-07-29T09:39:50;100040.80;;;29.65;49.83
51147;BME280;37207;53.060;18.726;2023-07-29T09:42:21;100039.28;;;29.83;49.53
51147;BME280;37207;53.060;18.726;2023-07-29T09:44:50;100030.31;;;29.86;48.47
51147;BME280;37207;53.060;18.726;2023-07-29T09:47:21;100033.41;;;29.88;48.43
51147;BME280;37207;53.060;18.726;2023-07-29T09:49:49;100033.68;;;29.94;48.15
51147;BME280;37207;53.060;18.726;2023-07-29T09:52:17;100029.22;;;29.92;46.92
51147;BME280;37207;53.060;18.726;2023-07-29T09:54:46;100030.93;;;29.67;47.35
51147;BME280;37207;53.060;18.726;2023-07-29T09:57:14;100026.59;;;29.60;47.44
51147;BME280;37207;53.060;18.726;2023-07-29T09:59:43;100025.96;;;29.62;47.61
51147;BME280;37207;53.060;18.726;2023-07-29T10:02:15;100026.52;;;29.50;47.00
51147;BME280;37207;53.060;18.726;2023-07-29T10:04:42;100031.37;;;29.42;46.75
51147;BME280;37207;53.060;18.726;2023-07-29T10:07:10;100031.27;;;29.54;47.48
51147;BME280;37207;53.060;18.726;2023-07-29T10:09:37;100027.22;;;29.78;47.41
51147;BME280;37207;53.060;18.726;2023-07-29T10:12:09;100034.20;;;30.01;47.36
51147;BME280;37207;53.060;18.726;2023-07-29T10:14:39;100025.55;;;30.20;46.16
51147;BME280;37207;53.060;18.726;2023-07-29T10:17:07;100025.78;;;30.30;45.56
51147;BME280;37207;53.060;18.726;2023-07-29T10:19:36;100026.96;;;30.16;44.93
51147;BME280;37207;53.060;18.726;2023-07-29T10:22:03;100024.07;;;29.95;44.68
51147;BME280;37207;53.060;18.726;2023-07-29T10:24:32;100017.60;;;29.99;44.90
51147;BME280;37207;53.060;18.726;2023-07-29T10:27:00;100018.21;;;30.24;44.96
51147;BME280;37207;53.060;18.726;2023-07-29T10:29:31;100018.97;;;30.48;44.55
51147;BME280;37207;53.060;18.726;2023-07-29T10:32:01;100010.99;;;30.76;44.52
51147;BME280;37207;53.060;18.726;2023-07-29T10:37:40;100010.79;;;31.22;44.06
51147;BME280;37207;53.060;18.726;2023-07-29T10:40:09;100011.05;;;31.31;42.94
51147;BME280;37207;53.060;18.726;2023-07-29T10:42:38;100008.39;;;31.36;43.13
51147;BME280;37207;53.060;18.726;2023-07-29T10:45:20;100008.94;;;31.45;42.92
51147;BME280;37207;53.060;18.726;2023-07-29T10:47:47;100002.85;;;31.67;42.82
51147;BME280;37207;53.060;18.726;2023-07-29T10:50:19;99998.70;;;31.73;41.24
51147;BME280;37207;53.060;18.726;2023-07-29T10:52:51;99999.11;;;31.46;41.75
51147;BME280;37207;53.060;18.726;2023-07-29T10:58:22;99999.52;;;31.19;41.13
51147;BME280;37207;53.060;18.726;2023-07-29T11:00:49;99999.20;;;31.08;41.37
51147;BME280;37207;53.060;18.726;2023-07-29T11:03:15;99999.80;;;32.22;40.76
51147;BME280;37207;53.060;18.726;2023-07-29T11:05:48;99993.29;;;33.42;39.64
51147;BME280;37207;53.060;18.726;2023-07-29T11:08:24;99981.62;;;34.45;38.77
51147;BME280;37207;53.060;18.726;2023-07-29T11:11:07;99972.17;;;35.21;37.21
51147;BME280;37207;53.060;18.726;2023-07-29T11:13:36;99974.94;;;35.61;36.68
51147;BME280;37207;53.060;18.726;2023-07-29T11:16:03;99976.73;;;35.79;36.55
51147;BME280;37207;53.060;18.726;2023-07-29T11:18:35;99976.96;;;35.55;37.04
51147;BME280;37207;53.060;18.726;2023-07-29T11:21:03;99977.10;;;35.78;36.53
51147;BME280;37207;53.060;18.726;2023-07-29T11:23:35;99971.80;;;35.61;35.54
51147;BME280;37207;53.060;18.726;2023-07-29T11:26:04;99966.02;;;35.21;35.51
51147;BME280;37207;53.060;18.726;2023-07-29T11:28:37;99965.01;;;35.59;35.33
51147;BME280;37207;53.060;18.726;2023-07-29T11:31:04;99961.93;;;35.85;35.07
51147;BME280;37207;53.060;18.726;2023-07-29T11:33:31;99961.76;;;35.90;35.15
51147;BME280;37207;53.060;18.726;2023-07-29T11:35:58;99958.46;;;35.57;35.69
51147;BME280;37207;53.060;18.726;2023-07-29T11:38:25;99957.41;;;35.06;35.83
51147;BME280;37207;53.060;18.726;2023-07-29T11:43:22;99944.60;;;34.88;36.13
51147;BME280;37207;53.060;18.726;2023-07-29T11:45:49;99953.55;;;34.85;35.74
51147;BME280;37207;53.060;18.726;2023-07-29T11:48:15;99950.30;;;34.77;36.04
51147;BME280;37207;53.060;18.726;2023-07-29T11:50:43;99939.78;;;34.56;36.16
51147;BME280;37207;53.060;18.726;2023-07-29T11:53:10;99946.14;;;34.05;36.16
51147;BME280;37207;53.060;18.726;2023-07-29T11:55:37;99940.85;;;33.92;36.72
51147;BME280;37207;53.060;18.726;2023-07-29T11:58:04;99937.09;;;33.86;36.81
51147;BME280;37207;53.060;18.726;2023-07-29T12:00:31;99928.92;;;33.86;36.58
51147;BME280;37207;53.060;18.726;2023-07-29T12:02:58;99921.44;;;33.85;36.59
51147;BME280;37207;53.060;18.726;2023-07-29T12:05:25;99915.70;;;33.85;36.96
51147;BME280;37207;53.060;18.726;2023-07-29T12:07:52;99909.13;;;33.81;36.27
51147;BME280;37207;53.060;18.726;2023-07-29T12:10:19;99909.15;;;33.64;36.11
51147;BME280;37207;53.060;18.726;2023-07-29T12:12:48;99902.30;;;33.34;36.31
51147;BME280;37207;53.060;18.726;2023-07-29T12:15:26;99900.86;;;33.30;37.47
51147;BME280;37207;53.060;18.726;2023-07-29T12:17:54;99899.27;;;33.46;36.97
51147;BME280;37207;53.060;18.726;2023-07-29T12:20:22;99899.06;;;33.53;36.55
51147;BME280;37207;53.060;18.726;2023-07-29T12:22:56;99889.95;;;33.50;36.12
51147;BME280;37207;53.060;18.726;2023-07-29T12:25:23;99884.86;;;33.18;36.68
51147;BME280;37207;53.060;18.726;2023-07-29T12:27:50;99877.29;;;33.31;36.61
51147;BME280;37207;53.060;18.726;2023-07-29T12:30:20;99873.65;;;33.46;36.38
51147;BME280;37207;53.060;18.726;2023-07-29T12:32:55;99869.89;;;33.54;36.49
51147;BME280;37207;53.060;18.726;2023-07-29T12:35:36;99867.73;;;33.72;36.71
51147;BME280;37207;53.060;18.726;2023-07-29T12:38:06;99859.42;;;33.76;36.01
51147;BME280;37207;53.060;18.726;2023-07-29T12:40:38;99860.20;;;33.65;36.15
51147;BME280;37207;53.060;18.726;2023-07-29T12:43:09;99858.11;;;33.62;36.09
51147;BME280;37207;53.060;18.726;2023-07-29T12:45:38;99855.42;;;33.68;35.94
51147;BME280;37207;53.060;18.726;2023-07-29T12:48:06;99850.09;;;33.67;35.27
51147;BME280;37207;53.060;18.726;2023-07-29T12:50:33;99851.60;;;33.55;35.34
51147;BME280;37207;53.060;18.726;2023-07-29T12:52:59;99852.48;;;33.34;35.88
51147;BME280;37207;53.060;18.726;2023-07-29T12:55:26;99850.94;;;33.30;35.71
51147;BME280;37207;53.060;18.726;2023-07-29T12:57:52;99849.67;;;33.31;36.26